createdAt,value
2018-02-16T00:00:52.335Z,2.20
2018-02-16T00:06:21.078Z,2.20
2018-02-16T00:08:49.226Z,2.30
2018-02-16T00:11:18.316Z,2.20
2018-02-16T00:13:51.053Z,2.20
2018-02-16T00:16:21.181Z,2.20
2018-02-16T00:21:42.375Z,2.20
2018-02-16T00:24:28.502Z,2.20
2018-02-16T00:26:56.629Z,2.20
2018-02-16T00:29:26.707Z,2.10
2018-02-16T00:31:58.125Z,2.10
2018-02-16T00:34:29.666Z,2.20
2018-02-16T00:36:57.777Z,2.20
2018-02-16T00:39:37.655Z,2.20
2018-02-16T00:42:16.731Z,2.20
2018-02-16T00:47:41.968Z,2.10
2018-02-16T00:50:10.054Z,2.10
2018-02-16T00:52:38.166Z,2.00
2018-02-16T00:55:10.056Z,2.00
2018-02-16T00:57:38.984Z,2.00
2018-02-16T01:00:07.095Z,2.00
2018-02-16T01:02:36.271Z,1.90
2018-02-16T01:05:14.239Z,1.90
2018-02-16T01:07:43.170Z,1.90
2018-02-16T01:10:23.027Z,1.80
2018-02-16T01:12:51.154Z,1.80
2018-02-16T01:15:42.940Z,1.70
2018-02-16T01:18:11.056Z,1.70
2018-02-16T01:20:43.483Z,1.60
2018-02-16T01:23:15.273Z,1.60
2018-02-16T01:25:45.151Z,1.50
2018-02-16T01:28:13.294Z,1.50
2018-02-16T01:30:53.359Z,1.50
2018-02-16T01:33:26.191Z,1.40
2018-02-16T01:35:54.304Z,1.50
2018-02-16T01:38:22.388Z,1.50
2018-02-16T01:41:05.529Z,1.50
2018-02-16T01:43:45.389Z,1.50
2018-02-16T01:46:21.389Z,1.60
2018-02-16T01:48:52.562Z,1.50
2018-02-16T01:54:17.955Z,1.60
2018-02-16T01:56:47.048Z,1.60
2018-02-16T01:59:15.170Z,1.60
2018-02-16T02:01:48.210Z,1.60
2018-02-16T02:04:35.728Z,1.60
2018-02-16T02:07:04.819Z,1.60
2018-02-16T02:09:42.260Z,1.50
2018-02-16T02:12:12.386Z,1.40
2018-02-16T02:14:47.004Z,1.40
2018-02-16T02:17:15.174Z,1.40
2018-02-16T02:19:43.296Z,1.30
2018-02-16T02:25:07.844Z,1.30
2018-02-16T02:27:37.925Z,1.30
2018-02-16T02:30:25.468Z,1.30
2018-02-16T02:32:54.574Z,1.30
2018-02-16T02:35:43.862Z,1.30
2018-02-16T02:38:12.041Z,1.40
2018-02-16T02:40:59.158Z,1.40
2018-02-16T02:43:28.336Z,1.40
2018-02-16T02:45:57.433Z,1.40
2018-02-16T02:48:33.151Z,1.40
2018-02-16T02:51:04.342Z,1.30
2018-02-16T02:53:34.410Z,1.30
2018-02-16T02:56:14.857Z,1.30
2018-02-16T02:58:43.032Z,1.30
2018-02-16T03:01:11.235Z,1.30
2018-02-16T03:03:43.923Z,1.30
2018-02-16T03:06:30.237Z,1.30
2018-02-16T03:09:12.982Z,1.50
2018-02-16T03:11:41.111Z,1.40
2018-02-16T03:14:11.131Z,1.60
2018-02-16T03:16:48.319Z,1.60
2018-02-16T03:19:27.279Z,1.60
2018-02-16T03:21:55.431Z,1.60
2018-02-16T03:24:29.994Z,1.70
2018-02-16T03:27:05.601Z,1.70
2018-02-16T03:29:33.822Z,1.70
2018-02-16T03:32:03.974Z,1.80
2018-02-16T03:34:38.802Z,1.90
2018-02-16T03:37:13.495Z,1.90
2018-02-16T03:39:57.029Z,2.00
2018-02-16T03:42:25.972Z,2.00
2018-02-16T03:44:57.305Z,2.00
2018-02-16T03:47:25.559Z,2.00
2018-02-16T03:49:53.650Z,2.00
2018-02-16T03:52:24.965Z,2.00
2018-02-16T03:54:53.063Z,2.10
2018-02-16T04:00:14.549Z,2.00
2018-02-16T04:02:44.424Z,2.10
2018-02-16T04:05:12.590Z,2.00
2018-02-16T04:07:40.794Z,2.00
2018-02-16T04:10:08.951Z,2.00
2018-02-16T04:12:37.980Z,2.00
2018-02-16T04:15:09.139Z,2.00
2018-02-16T04:17:37.347Z,2.00
2018-02-16T04:20:15.504Z,1.90
2018-02-16T04:22:44.479Z,1.90
2018-02-16T04:25:18.471Z,1.90
2018-02-16T04:27:50.643Z,1.90
2018-02-16T04:30:18.758Z,1.80
2018-02-16T04:32:47.955Z,1.80
2018-02-16T04:35:16.176Z,1.80
2018-02-16T04:37:45.334Z,1.80
2018-02-16T04:40:13.598Z,1.90
2018-02-16T04:42:45.934Z,1.90
2018-02-16T04:45:15.008Z,1.90
2018-02-16T04:47:45.142Z,1.90
2018-02-16T04:50:14.501Z,1.80
2018-02-16T04:55:45.383Z,1.60
2018-02-16T04:58:13.558Z,1.60
2018-02-16T05:00:45.157Z,1.50
2018-02-16T05:03:15.939Z,1.50
2018-02-16T05:05:44.054Z,1.50
2018-02-16T05:08:16.733Z,1.40
2018-02-16T05:10:44.830Z,1.40
2018-02-16T05:13:16.579Z,1.30
2018-02-16T05:16:03.127Z,1.30
2018-02-16T05:18:36.580Z,1.30
2018-02-16T05:21:05.591Z,1.30
2018-02-16T05:23:41.955Z,1.20
2018-02-16T05:26:11.817Z,1.20
2018-02-16T05:28:39.911Z,1.20
2018-02-16T05:31:26.643Z,1.20
2018-02-16T05:34:00.396Z,1.30
2018-02-16T05:36:39.126Z,1.30
2018-02-16T05:39:07.408Z,1.20
2018-02-16T05:41:37.052Z,1.30
2018-02-16T05:44:12.450Z,1.30
2018-02-16T05:46:53.851Z,1.30
2018-02-16T05:49:22.070Z,1.20
2018-02-16T05:51:50.176Z,1.30
2018-02-16T05:54:37.254Z,1.30
2018-02-16T05:57:05.480Z,1.20
2018-02-16T05:59:35.543Z,1.30
2018-02-16T06:02:03.698Z,1.30
2018-02-16T06:04:38.420Z,1.20
2018-02-16T06:07:08.517Z,1.20
2018-02-16T06:09:36.668Z,1.20
2018-02-16T06:12:04.888Z,1.30
2018-02-16T06:14:56.708Z,1.30
2018-02-16T06:17:24.837Z,1.20
2018-02-16T06:20:12.835Z,1.20
2018-02-16T06:22:41.046Z,1.20
2018-02-16T06:25:10.013Z,1.20
2018-02-16T06:27:38.138Z,1.10
2018-02-16T06:30:06.406Z,1.20
2018-02-16T06:32:35.549Z,1.20
2018-02-16T06:35:03.812Z,1.20
2018-02-16T06:37:32.001Z,1.20
2018-02-16T06:40:00.244Z,1.20
2018-02-16T06:42:29.251Z,1.20
2018-02-16T06:44:58.386Z,1.20
2018-02-16T06:47:30.344Z,1.20
2018-02-16T06:49:58.705Z,1.20
2018-02-16T06:52:27.620Z,1.20
2018-02-16T06:54:55.828Z,1.20
2018-02-16T06:57:24.667Z,1.30
2018-02-16T06:59:53.560Z,1.40
2018-02-16T07:02:21.979Z,1.50
2018-02-16T07:04:50.099Z,1.50
2018-02-16T07:07:18.368Z,1.50
2018-02-16T07:09:49.143Z,1.50
2018-02-16T07:12:18.255Z,1.50
2018-02-16T07:14:46.380Z,1.40
2018-02-16T07:17:20.187Z,1.40
2018-02-16T07:19:48.400Z,1.40
2018-02-16T07:22:16.534Z,1.40
2018-02-16T07:24:44.653Z,1.30
2018-02-16T07:27:15.991Z,1.40
2018-02-16T07:29:45.802Z,1.40
2018-02-16T07:32:14.329Z,1.40
2018-02-16T07:34:43.456Z,1.50
2018-02-16T07:37:15.211Z,1.40
2018-02-16T07:39:45.569Z,1.40
2018-02-16T07:42:14.038Z,1.40
2018-02-16T07:44:42.159Z,1.40
2018-02-16T07:47:10.348Z,1.40
2018-02-16T07:49:41.295Z,1.40
2018-02-16T07:52:15.634Z,1.50
2018-02-16T07:54:46.401Z,1.50
2018-02-16T07:57:14.860Z,1.50
2018-02-16T07:59:45.181Z,1.50
2018-02-16T08:05:07.054Z,1.50
2018-02-16T08:07:35.249Z,1.50
2018-02-16T08:10:04.283Z,1.50
2018-02-16T08:12:34.327Z,1.60
2018-02-16T08:15:02.595Z,1.50
2018-02-16T08:17:30.691Z,1.60
2018-02-16T08:29:12.546Z,1.80
2018-02-16T08:31:40.686Z,1.90
2018-02-16T08:34:13.216Z,2.00
2018-02-16T08:36:41.352Z,2.00
2018-02-16T08:39:10.822Z,2.10
2018-02-16T08:41:42.415Z,2.10
2018-02-16T08:44:11.812Z,2.20
2018-02-16T08:46:41.506Z,2.20
2018-02-16T08:49:17.060Z,2.20
2018-02-16T08:51:50.698Z,2.30
2018-02-16T08:54:22.548Z,2.30
2018-02-16T08:56:50.642Z,2.40
2018-02-16T08:59:18.862Z,2.40
2018-02-16T09:01:47.258Z,2.50
2018-02-16T09:04:20.700Z,2.50
2018-02-16T09:06:48.825Z,2.60
2018-02-16T09:09:16.924Z,2.60
2018-02-16T09:11:45.418Z,2.70
2018-02-16T09:14:15.524Z,2.70
2018-02-16T09:16:43.900Z,2.70
2018-02-16T09:19:14.981Z,2.70
2018-02-16T09:21:43.429Z,2.80
2018-02-16T09:24:12.386Z,2.90
2018-02-16T09:26:41.241Z,3.00
2018-02-16T09:29:09.452Z,3.00
2018-02-16T09:31:39.259Z,3.10
2018-02-16T09:34:07.444Z,3.10
2018-02-16T09:36:35.655Z,3.10
2018-02-16T09:39:08.904Z,3.20
2018-02-16T09:41:40.450Z,3.20
2018-02-16T09:44:08.677Z,3.30
2018-02-16T09:46:36.984Z,3.40
2018-02-16T09:49:05.146Z,3.40
2018-02-16T09:51:36.969Z,3.40
2018-02-16T09:54:15.182Z,3.50
2018-02-16T09:56:44.135Z,3.50
2018-02-16T09:59:13.376Z,3.60
2018-02-16T10:01:42.659Z,3.60
2018-02-16T10:04:14.907Z,3.60
2018-02-16T10:06:44.055Z,3.70
2018-02-16T10:09:12.199Z,3.80
2018-02-16T10:11:41.300Z,3.80
2018-02-16T10:14:11.516Z,3.80
2018-02-16T10:16:40.129Z,3.90
2018-02-16T10:19:08.279Z,4.00
2018-02-16T10:21:38.425Z,4.00
2018-02-16T10:24:10.392Z,4.00
2018-02-16T10:26:38.540Z,4.10
2018-02-16T10:29:07.195Z,4.10
2018-02-16T10:31:35.407Z,4.20
2018-02-16T10:34:04.477Z,4.30
2018-02-16T10:36:32.724Z,4.30
2018-02-16T10:39:01.041Z,4.40
2018-02-16T10:41:30.219Z,4.40
2018-02-16T10:43:59.503Z,4.40
2018-02-16T10:46:28.520Z,4.50
2018-02-16T10:48:56.772Z,4.50
2018-02-16T10:51:26.029Z,4.50
2018-02-16T10:53:56.249Z,4.60
2018-02-16T10:56:25.760Z,4.70
2018-02-16T10:58:57.039Z,4.70
2018-02-16T11:01:26.779Z,4.80
2018-02-16T11:03:59.679Z,4.80
2018-02-16T11:06:33.469Z,5.00
2018-02-16T11:09:07.281Z,4.90
2018-02-16T11:11:35.439Z,5.10
2018-02-16T11:14:04.315Z,5.10
2018-02-16T11:16:32.769Z,5.20
2018-02-16T11:19:02.933Z,5.40
2018-02-16T11:21:31.130Z,5.60
2018-02-16T11:23:59.620Z,5.70
2018-02-16T11:26:27.885Z,5.80
2018-02-16T11:28:59.574Z,5.60
2018-02-16T11:31:27.904Z,5.60
2018-02-16T11:33:56.042Z,5.70
2018-02-16T11:36:24.286Z,5.90
2018-02-16T11:38:54.520Z,5.90
2018-02-16T11:41:22.796Z,5.80
2018-02-16T11:43:51.013Z,5.80
2018-02-16T11:46:19.167Z,5.60
2018-02-16T11:48:50.605Z,5.40
2018-02-16T11:51:18.837Z,5.50
2018-02-16T11:53:47.770Z,5.70
2018-02-16T11:56:15.941Z,5.80
2018-02-16T11:58:44.810Z,6.00
2018-02-16T12:01:13.081Z,6.00
2018-02-16T12:03:42.306Z,6.00
2018-02-16T12:06:11.377Z,6.00
2018-02-16T12:08:43.439Z,6.10
2018-02-16T12:11:13.440Z,6.20
2018-02-16T12:13:41.633Z,6.30
2018-02-16T12:16:11.343Z,6.40
2018-02-16T12:18:40.766Z,6.40
2018-02-16T12:21:09.089Z,6.50
2018-02-16T12:23:37.311Z,6.60
2018-02-16T12:26:05.559Z,6.60
2018-02-16T12:28:36.328Z,6.50
2018-02-16T12:31:04.498Z,6.50
2018-02-16T12:33:32.676Z,6.40
2018-02-16T12:36:05.491Z,6.20
2018-02-16T12:38:34.648Z,6.20
2018-02-16T12:41:02.981Z,6.00
2018-02-16T12:43:32.196Z,5.70
2018-02-16T12:46:00.436Z,5.50
2018-02-16T12:48:29.420Z,5.50
2018-02-16T12:50:57.664Z,5.60
2018-02-16T12:53:25.853Z,5.90
2018-02-16T12:55:55.859Z,6.10
2018-02-16T12:58:24.135Z,6.00
2018-02-16T13:00:55.565Z,6.00
2018-02-16T13:03:24.839Z,6.10
2018-02-16T13:05:53.036Z,6.20
2018-02-16T13:08:22.741Z,6.40
2018-02-16T13:10:51.036Z,6.40
2018-02-16T13:13:23.401Z,6.50
2018-02-16T13:15:53.810Z,6.50
2018-02-16T13:18:22.023Z,6.60
2018-02-16T13:20:53.042Z,6.40
2018-02-16T13:23:21.645Z,6.30
2018-02-16T13:25:51.288Z,6.50
2018-02-16T13:28:20.044Z,6.60
2018-02-16T13:30:50.360Z,6.60
2018-02-16T13:33:19.867Z,6.60
2018-02-16T13:35:48.874Z,6.60
2018-02-16T13:38:22.707Z,6.60
2018-02-16T13:40:50.930Z,6.50
2018-02-16T13:46:12.292Z,6.20
2018-02-16T13:48:40.893Z,6.20
2018-02-16T13:51:11.447Z,6.00
2018-02-16T13:53:44.403Z,6.10
2018-02-16T13:56:14.434Z,6.10
2018-02-16T13:58:42.564Z,6.10
2018-02-16T14:01:11.053Z,6.10
2018-02-16T14:03:39.210Z,6.00
2018-02-16T14:06:08.243Z,5.90
2018-02-16T14:08:36.447Z,5.90
2018-02-16T14:11:11.411Z,5.70
2018-02-16T14:13:41.504Z,5.50
2018-02-16T14:16:10.503Z,5.30
2018-02-16T14:21:37.921Z,5.10
2018-02-16T14:24:07.016Z,5.00
2018-02-16T14:26:35.190Z,5.00
2018-02-16T14:29:04.882Z,5.00
2018-02-16T14:31:33.041Z,4.90
2018-02-16T14:34:01.156Z,4.90
2018-02-16T14:36:29.464Z,5.00
2018-02-16T14:38:57.579Z,5.00
2018-02-16T14:41:29.444Z,5.00
2018-02-16T14:43:58.704Z,5.00
2018-02-16T14:46:27.171Z,5.00
2018-02-16T14:48:55.472Z,5.00
2018-02-16T14:51:24.868Z,5.10
2018-02-16T14:53:53.078Z,5.20
2018-02-16T14:56:21.219Z,5.30
2018-02-16T14:58:50.083Z,5.40
2018-02-16T15:01:18.207Z,5.40
2018-02-16T15:03:47.277Z,5.20
2018-02-16T15:06:16.338Z,5.20
2018-02-16T15:08:44.567Z,5.10
2018-02-16T15:11:12.780Z,5.00
2018-02-16T15:13:40.940Z,5.00
2018-02-16T15:16:15.217Z,5.00
2018-02-16T15:18:43.439Z,5.10
2018-02-16T15:21:11.739Z,5.20
2018-02-16T15:23:39.972Z,5.20
2018-02-16T15:26:10.035Z,5.30
2018-02-16T15:28:38.219Z,5.40
2018-02-16T15:31:06.444Z,5.40
2018-02-16T15:33:35.269Z,5.40
2018-02-16T15:36:03.438Z,5.50
2018-02-16T15:38:31.671Z,5.40
2018-02-16T15:40:59.778Z,5.40
2018-02-16T15:43:29.873Z,5.40
2018-02-16T15:46:00.344Z,5.40
2018-02-16T15:48:29.306Z,5.40
2018-02-16T15:50:57.409Z,5.40
2018-02-16T15:53:25.633Z,5.40
2018-02-16T15:55:53.760Z,5.40
2018-02-16T15:58:22.104Z,5.40
2018-02-16T16:00:56.702Z,5.30
2018-02-16T16:03:29.352Z,5.10
2018-02-16T16:05:58.336Z,5.10
2018-02-16T16:08:27.391Z,5.00
2018-02-16T16:10:56.586Z,5.00
2018-02-16T16:13:26.266Z,5.00
2018-02-16T16:15:56.633Z,5.00
2018-02-16T16:18:24.861Z,4.80
2018-02-16T16:20:53.782Z,4.60
2018-02-16T16:23:22.706Z,4.60
2018-02-16T16:25:50.885Z,4.40
2018-02-16T16:28:19.958Z,4.30
2018-02-16T16:30:48.138Z,4.20
2018-02-16T16:33:17.307Z,4.00
2018-02-16T16:35:45.587Z,4.00
2018-02-16T16:38:13.860Z,3.90
2018-02-16T16:40:42.077Z,3.80
2018-02-16T16:43:16.606Z,3.80
2018-02-16T16:48:19.487Z,3.90
2018-02-16T16:50:59.017Z,3.90
2018-02-16T16:53:53.666Z,3.90
2018-02-16T16:56:21.786Z,3.90
2018-02-16T16:58:54.789Z,3.90
2018-02-16T17:01:25.260Z,3.90
2018-02-16T17:03:57.306Z,3.90
2018-02-16T17:06:25.630Z,4.00
2018-02-16T17:08:54.225Z,4.00
2018-02-16T17:11:23.664Z,4.00
2018-02-16T17:32:48.739Z,4.20
2018-02-16T17:35:16.831Z,4.20
2018-02-16T17:40:45.153Z,4.10
2018-02-16T17:43:14.980Z,4.20
2018-02-16T17:45:44.048Z,4.20
2018-02-16T17:48:12.462Z,4.20
2018-02-16T17:50:44.557Z,4.20
2018-02-16T17:53:17.900Z,4.20
2018-02-16T17:55:46.027Z,4.20
2018-02-16T17:58:17.945Z,4.20
2018-02-16T18:00:55.897Z,4.20
2018-02-16T18:03:37.102Z,4.20
2018-02-16T18:06:20.708Z,4.20
2018-02-16T18:08:50.025Z,4.20
2018-02-16T18:11:20.180Z,4.20
2018-02-16T18:13:49.430Z,4.10
2018-02-16T18:16:22.277Z,4.10
2018-02-16T18:18:52.333Z,4.10
2018-02-16T18:21:20.539Z,4.10
2018-02-16T18:23:50.864Z,4.20
2018-02-16T18:26:19.599Z,4.20
2018-02-16T18:28:49.288Z,4.20
2018-02-16T18:31:17.484Z,4.20
2018-02-16T18:33:49.263Z,4.20
2018-02-16T18:36:18.124Z,4.20
2018-02-16T18:38:46.321Z,4.20
2018-02-16T18:41:14.501Z,4.20
2018-02-16T18:43:43.611Z,4.20
2018-02-16T18:46:11.807Z,4.20
2018-02-16T18:48:43.566Z,4.20
2018-02-16T18:51:12.886Z,4.20
2018-02-16T18:53:45.564Z,4.20
2018-02-16T18:56:17.008Z,4.20
2018-02-16T18:58:45.195Z,4.20
2018-02-16T19:01:29.996Z,4.20
2018-02-16T19:03:59.122Z,4.20
2018-02-16T19:06:34.546Z,4.20
2018-02-16T19:09:02.734Z,4.20
2018-02-16T19:11:32.484Z,4.30
2018-02-16T19:14:10.085Z,4.30
2018-02-16T19:16:39.156Z,4.30
2018-02-16T19:19:08.215Z,4.30
2018-02-16T19:21:39.628Z,4.30
2018-02-16T19:24:20.194Z,4.30
2018-02-16T19:26:48.340Z,4.30
2018-02-16T19:29:19.771Z,4.30
2018-02-16T19:31:48.975Z,4.30
2018-02-16T19:34:17.257Z,4.30
2018-02-16T19:36:45.848Z,4.30
2018-02-16T19:39:33.057Z,4.30
2018-02-16T19:42:02.393Z,4.30
2018-02-16T19:44:31.632Z,4.30
2018-02-16T19:47:05.022Z,4.20
2018-02-16T19:49:36.064Z,4.20
2018-02-16T19:52:05.248Z,4.20
2018-02-16T19:54:38.669Z,4.20
2018-02-16T19:57:18.850Z,4.20
2018-02-16T19:59:51.480Z,4.20
2018-02-16T20:02:19.641Z,4.10
2018-02-16T20:04:51.225Z,4.20
2018-02-16T20:07:19.401Z,4.20
2018-02-16T20:09:48.711Z,4.20
2018-02-16T20:12:41.474Z,4.20
2018-02-16T20:15:14.414Z,4.10
2018-02-16T20:17:44.630Z,4.20
2018-02-16T20:20:17.174Z,4.20
2018-02-16T20:23:02.323Z,4.10
2018-02-16T20:25:32.018Z,4.20
2018-02-16T20:28:00.625Z,4.10
2018-02-16T20:30:28.859Z,4.10
2018-02-16T20:32:57.770Z,4.00
2018-02-16T20:35:28.086Z,4.00
2018-02-16T20:37:56.316Z,4.00
2018-02-16T20:40:35.938Z,4.00
2018-02-16T20:43:04.906Z,3.90
2018-02-16T20:45:38.539Z,3.90
2018-02-16T20:48:09.363Z,3.90
2018-02-16T20:50:51.731Z,3.90
2018-02-16T20:53:22.016Z,3.80
2018-02-16T20:55:54.631Z,3.80
2018-02-16T20:58:25.158Z,3.80
2018-02-16T21:00:53.601Z,3.80
2018-02-16T21:03:21.702Z,3.80
2018-02-16T21:05:52.399Z,3.70
2018-02-16T21:08:23.232Z,3.70
2018-02-16T21:10:52.803Z,3.70
2018-02-16T21:13:21.767Z,3.70
2018-02-16T21:15:53.427Z,3.60
2018-02-16T21:18:22.321Z,3.60
2018-02-16T21:20:51.909Z,3.60
2018-02-16T21:23:20.417Z,3.60
2018-02-16T21:26:01.338Z,3.50
2018-02-16T21:28:30.450Z,3.50
2018-02-16T21:31:05.880Z,3.40
2018-02-16T21:33:34.071Z,3.40
2018-02-16T21:36:04.112Z,3.30
2018-02-16T21:38:35.008Z,3.30
2018-02-16T21:41:18.217Z,3.30
2018-02-16T21:43:46.528Z,3.30
2018-02-16T21:46:20.696Z,3.30
2018-02-16T21:49:00.876Z,3.20
2018-02-16T21:51:29.105Z,3.20
2018-02-16T21:53:57.228Z,3.20
2018-02-16T21:56:28.371Z,3.20
2018-02-16T21:58:56.832Z,3.10
2018-02-16T22:01:33.829Z,3.00
2018-02-16T22:04:15.234Z,3.00
2018-02-16T22:06:49.473Z,3.00
2018-02-16T22:09:34.616Z,3.00
2018-02-16T22:12:02.743Z,2.90
2018-02-16T22:14:34.826Z,2.90
2018-02-16T22:17:07.571Z,2.90
2018-02-16T22:19:35.742Z,2.80
2018-02-16T22:22:04.061Z,2.80
2018-02-16T22:24:32.179Z,2.80
2018-02-16T22:27:11.828Z,2.80
2018-02-16T22:29:41.040Z,2.80
2018-02-16T22:32:09.637Z,2.70
2018-02-16T22:34:39.052Z,2.70
2018-02-16T22:37:15.739Z,2.70
2018-02-16T22:39:46.690Z,2.60
2018-02-16T22:42:19.777Z,2.50
2018-02-16T22:44:47.926Z,2.50
2018-02-16T22:47:17.168Z,2.40
2018-02-16T22:49:45.232Z,2.40
2018-02-16T22:52:15.683Z,2.40
2018-02-16T22:54:44.835Z,2.30
2018-02-16T22:57:13.222Z,2.30
2018-02-16T22:59:43.539Z,2.20
2018-02-16T23:02:15.334Z,2.20
2018-02-16T23:04:45.541Z,2.20
2018-02-16T23:10:14.010Z,2.10
2018-02-16T23:12:44.270Z,2.00
2018-02-16T23:15:12.493Z,2.00
2018-02-16T23:17:49.476Z,2.00
2018-02-16T23:20:23.167Z,1.90
2018-02-16T23:22:51.307Z,1.80
2018-02-16T23:25:26.186Z,1.80
2018-02-16T23:28:15.044Z,1.80
2018-02-16T23:30:51.560Z,1.70
2018-02-16T23:33:25.610Z,1.70
2018-02-16T23:35:53.787Z,1.70
2018-02-16T23:38:38.960Z,1.70
2018-02-16T23:41:07.274Z,1.70
2018-02-16T23:43:36.337Z,1.60
2018-02-16T23:46:04.530Z,1.60
2018-02-16T23:48:53.607Z,1.50
2018-02-16T23:51:21.811Z,1.50
2018-02-16T23:53:50.005Z,1.50
2018-02-16T23:56:18.159Z,1.40
2018-02-16T23:58:46.371Z,1.40
